createdAt,value
2019-04-03T00:02:20.733Z,95605.55
2019-04-03T00:04:49.820Z,95604.83
2019-04-03T00:07:18.922Z,95611.56
2019-04-03T00:09:48.021Z,95603.80
2019-04-03T00:12:17.131Z,95607.32
2019-04-03T00:14:46.249Z,95613.24
2019-04-03T00:17:15.939Z,95605.48
2019-04-03T00:19:45.798Z,95604.65
2019-04-03T00:22:15.943Z,95601.70
2019-04-03T00:24:45.005Z,95605.98
2019-04-03T00:27:14.107Z,95589.89
2019-04-03T00:29:43.189Z,95580.06
2019-04-03T00:32:12.295Z,95578.42
2019-04-03T00:34:41.374Z,95573.34
2019-04-03T00:37:10.476Z,95567.19
2019-04-03T00:39:39.574Z,95552.78
2019-04-03T00:42:08.766Z,95549.48
2019-04-03T00:44:37.846Z,95544.48
2019-04-03T00:47:06.956Z,95543.45
2019-04-03T00:49:36.035Z,95538.69
2019-04-03T00:52:05.164Z,95536.63
2019-04-03T00:54:34.388Z,95545.83
2019-04-03T00:57:03.454Z,95545.90
2019-04-03T00:59:32.526Z,95550.53
2019-04-03T01:02:01.636Z,95557.75
2019-04-03T01:04:30.749Z,95557.24
2019-04-03T01:06:59.846Z,95560.47
2019-04-03T01:09:29.764Z,95560.50
2019-04-03T01:12:00.854Z,95557.02
2019-04-03T01:14:31.579Z,95566.18
2019-04-03T01:17:03.496Z,95558.98
2019-04-03T01:19:31.981Z,95558.45
2019-04-03T01:22:01.063Z,95554.97
2019-04-03T01:24:30.185Z,95558.72
2019-04-03T01:26:59.250Z,95560.30
2019-04-03T01:29:28.348Z,95551.73
2019-04-03T01:31:57.429Z,95555.48
2019-04-03T01:34:26.554Z,95547.21
2019-04-03T01:36:55.657Z,95546.62
2019-04-03T01:39:24.731Z,95538.80
2019-04-03T01:41:53.822Z,95540.41
2019-04-03T01:44:24.712Z,95545.78
2019-04-03T01:46:53.777Z,95540.97
2019-04-03T01:49:22.893Z,95543.64
2019-04-03T01:51:51.970Z,95536.42
2019-04-03T01:54:21.079Z,95530.81
2019-04-03T01:56:50.163Z,95534.29
2019-04-03T01:59:19.415Z,95522.77
2019-04-03T02:01:48.590Z,95517.13
2019-04-03T02:04:17.632Z,95517.13
2019-04-03T02:06:46.715Z,95517.98
2019-04-03T02:09:16.332Z,95518.52
2019-04-03T02:11:45.623Z,95507.30
2019-04-03T02:14:14.671Z,95521.73
2019-04-03T02:16:43.755Z,95512.65
2019-04-03T02:19:12.881Z,95510.72
2019-04-03T02:21:41.941Z,95516.30
2019-04-03T02:24:11.219Z,95511.05
2019-04-03T02:26:40.311Z,95502.16
2019-04-03T02:29:09.393Z,95500.27
2019-04-03T02:31:38.606Z,95506.67
2019-04-03T02:34:07.659Z,95494.95
2019-04-03T02:36:37.013Z,95487.70
2019-04-03T02:39:07.389Z,95480.48
2019-04-03T02:41:37.464Z,95486.66
2019-04-03T02:44:06.913Z,95482.92
2019-04-03T02:46:36.016Z,95478.98
2019-04-03T02:49:05.099Z,95477.94
2019-04-03T02:51:34.307Z,95481.42
2019-04-03T02:54:03.393Z,95485.95
2019-04-03T02:56:32.747Z,95486.77
2019-04-03T02:59:01.876Z,95479.52
2019-04-03T03:01:31.005Z,95477.38
2019-04-03T03:04:00.107Z,95479.52
2019-04-03T03:06:31.905Z,95487.53
2019-04-03T03:09:01.051Z,95487.53
2019-04-03T03:11:30.253Z,95480.62
2019-04-03T03:14:00.237Z,95491.84
2019-04-03T03:16:29.455Z,95484.09
2019-04-03T03:19:00.864Z,95480.11
2019-04-03T03:21:31.060Z,95473.70
2019-04-03T03:24:01.045Z,95473.73
2019-04-03T03:26:36.217Z,95468.92
2019-04-03T03:29:16.184Z,95464.17
2019-04-03T03:32:03.026Z,95458.62
2019-04-03T03:34:06.668Z,95462.67
2019-04-03T03:36:36.043Z,95464.83
2019-04-03T03:39:10.414Z,95452.02
2019-04-03T03:41:38.385Z,95458.14
2019-04-03T03:44:10.632Z,95457.33
2019-04-03T03:46:38.626Z,95443.98
2019-04-03T03:49:07.709Z,95438.38
2019-04-03T03:51:37.216Z,95445.34
2019-04-03T03:54:06.486Z,95436.51
2019-04-03T03:56:35.759Z,95431.97
2019-04-03T03:59:04.845Z,95444.02
2019-04-03T04:01:34.318Z,95437.36
2019-04-03T04:04:03.636Z,95428.73
2019-04-03T04:06:35.923Z,95431.17
2019-04-03T04:09:06.080Z,95420.77
2019-04-03T04:11:36.381Z,95429.30
2019-04-03T04:14:06.034Z,95422.92
2019-04-03T04:16:37.705Z,95422.39
2019-04-03T04:19:07.262Z,95423.16
2019-04-03T04:21:37.312Z,95415.45
2019-04-03T04:24:06.487Z,95417.38
2019-04-03T04:26:36.148Z,95419.48
2019-04-03T04:29:05.361Z,95420.02
2019-04-03T04:31:34.439Z,95425.64
2019-04-03T04:34:03.580Z,95428.55
2019-04-03T04:36:32.649Z,95432.55
2019-04-03T04:39:01.817Z,95431.20
2019-04-03T04:41:32.642Z,95429.38
2019-04-03T04:44:01.682Z,95429.11
2019-04-03T04:46:30.759Z,95430.44
2019-04-03T04:48:59.882Z,95424.34
2019-04-03T04:51:29.038Z,95429.66
2019-04-03T04:53:59.484Z,95425.66
2019-04-03T04:56:28.968Z,95425.11
2019-04-03T04:58:58.200Z,95413.39
2019-04-03T05:01:27.222Z,95415.74
2019-04-03T05:03:56.349Z,95415.18
2019-04-03T05:06:26.994Z,95412.52
2019-04-03T05:08:56.260Z,95407.22
2019-04-03T05:11:25.338Z,95396.02
2019-04-03T05:13:54.450Z,95408.32
2019-04-03T05:16:25.029Z,95413.88
2019-04-03T05:18:54.359Z,95411.95
2019-04-03T05:21:23.432Z,95413.02
2019-04-03T05:23:55.761Z,95410.32
2019-04-03T05:26:23.424Z,95415.69
2019-04-03T05:28:57.207Z,95413.55
2019-04-03T05:31:23.343Z,95410.86
2019-04-03T05:33:52.428Z,95407.14
2019-04-03T05:36:21.525Z,95398.57
2019-04-03T05:38:51.022Z,95392.10
2019-04-03T05:41:21.425Z,95394.73
2019-04-03T05:43:50.507Z,95391.42
2019-04-03T05:46:19.944Z,95397.80
2019-04-03T05:48:49.365Z,95402.08
2019-04-03T05:51:18.481Z,95394.73
2019-04-03T05:53:47.809Z,95389.93
2019-04-03T05:56:16.873Z,95395.03
2019-04-03T05:58:55.410Z,95397.14
2019-04-03T06:01:16.842Z,95394.94
2019-04-03T06:03:45.937Z,95400.84
2019-04-03T06:06:15.498Z,95399.36
2019-04-03T06:08:44.654Z,95399.81
2019-04-03T06:11:13.758Z,95397.82
2019-04-03T06:13:42.836Z,95394.66
2019-04-03T06:16:11.940Z,95398.02
2019-04-03T06:18:41.025Z,95399.81
2019-04-03T06:21:10.134Z,95403.95
2019-04-03T06:23:39.206Z,95400.48
2019-04-03T06:26:08.312Z,95406.63
2019-04-03T06:28:37.391Z,95405.34
2019-04-03T06:31:08.114Z,95400.53
2019-04-03T06:33:37.320Z,95405.73
2019-04-03T06:36:06.434Z,95407.95
2019-04-03T06:38:35.559Z,95413.83
2019-04-03T06:41:04.677Z,95421.17
2019-04-03T06:43:33.756Z,95431.33
2019-04-03T06:46:02.858Z,95443.77
2019-04-03T06:48:31.956Z,95445.29
2019-04-03T06:51:01.050Z,95450.63
2019-04-03T06:53:30.208Z,95452.25
2019-04-03T06:55:59.382Z,95451.97
2019-04-03T06:58:37.273Z,95453.87
2019-04-03T07:00:59.235Z,95457.87
2019-04-03T07:03:28.366Z,95471.22
2019-04-03T07:05:57.443Z,95470.92
2019-04-03T07:08:33.047Z,95475.16
2019-04-03T07:10:57.345Z,95466.92
2019-04-03T07:13:29.127Z,95476.47
2019-04-03T07:15:57.276Z,95478.38
2019-04-03T07:18:26.378Z,95479.69
2019-04-03T07:20:55.458Z,95480.77
2019-04-03T07:23:24.557Z,95484.73
2019-04-03T07:25:53.638Z,95490.63
2019-04-03T07:28:22.748Z,95483.66
2019-04-03T07:30:53.560Z,95489.31
2019-04-03T07:33:22.727Z,95484.25
2019-04-03T07:35:52.001Z,95489.56
2019-04-03T07:38:22.172Z,95490.32
2019-04-03T07:40:52.455Z,95487.39
2019-04-03T07:43:21.573Z,95486.63
2019-04-03T07:45:50.618Z,95489.56
2019-04-03T07:48:19.721Z,95485.85
2019-04-03T07:50:48.793Z,95496.25
2019-04-03T07:53:19.875Z,95491.72
2019-04-03T07:55:48.690Z,95494.90
2019-04-03T07:58:17.790Z,95499.19
2019-04-03T08:00:46.880Z,95498.92
2019-04-03T08:03:16.002Z,95503.47
2019-04-03T08:05:45.084Z,95505.86
2019-04-03T08:08:14.184Z,95498.90
2019-04-03T08:10:43.320Z,95487.73
2019-04-03T08:13:12.987Z,95482.91
2019-04-03T08:15:42.734Z,95475.20
2019-04-03T08:18:12.902Z,95487.72
2019-04-03T08:20:42.005Z,95485.59
2019-04-03T08:23:11.092Z,95481.34
2019-04-03T08:25:42.389Z,95482.66
2019-04-03T08:28:11.321Z,95489.84
2019-04-03T08:30:41.072Z,95491.71
2019-04-03T08:33:15.964Z,95493.80
2019-04-03T08:35:41.036Z,95489.75
2019-04-03T08:38:12.424Z,95491.90
2019-04-03T08:40:40.981Z,95495.94
2019-04-03T08:43:10.063Z,95491.70
2019-04-03T08:45:39.408Z,95495.44
2019-04-03T08:48:09.082Z,95500.98
2019-04-03T08:50:38.225Z,95496.52
2019-04-03T08:53:08.329Z,95500.23
2019-04-03T08:55:37.892Z,95504.11
2019-04-03T08:58:06.977Z,95505.20
2019-04-03T09:00:36.084Z,95506.03
2019-04-03T09:03:05.271Z,95508.47
2019-04-03T09:05:34.369Z,95510.81
2019-04-03T09:08:03.451Z,95512.48
2019-04-03T09:10:36.366Z,95511.91
2019-04-03T09:13:16.206Z,95512.98
2019-04-03T09:15:34.178Z,95513.28
2019-04-03T09:18:05.527Z,95511.41
2019-04-03T09:20:36.010Z,95505.58
2019-04-03T09:23:05.408Z,95506.63
2019-04-03T09:25:34.747Z,95508.52
2019-04-03T09:28:04.037Z,95512.95
2019-04-03T09:30:33.091Z,95512.49
2019-04-03T09:33:02.168Z,95506.88
2019-04-03T09:35:32.768Z,95508.78
2019-04-03T09:38:02.243Z,95507.96
2019-04-03T09:40:31.692Z,95502.39
2019-04-03T09:43:00.796Z,95496.49
2019-04-03T09:45:30.193Z,95499.97
2019-04-03T09:47:59.282Z,95496.77
2019-04-03T09:50:28.382Z,95482.34
2019-04-03T09:52:57.472Z,95486.31
2019-04-03T09:55:26.554Z,95472.75
2019-04-03T09:57:55.657Z,95472.57
2019-04-03T10:00:26.657Z,95480.91
2019-04-03T10:02:55.762Z,95487.97
2019-04-03T10:05:24.860Z,95479.27
2019-04-03T10:07:53.957Z,95481.97
2019-04-03T10:10:25.708Z,95481.07
2019-04-03T10:12:54.657Z,95466.75
2019-04-03T10:15:23.857Z,95470.56
2019-04-03T10:17:52.893Z,95461.92
2019-04-03T10:20:22.377Z,95470.83
2019-04-03T10:22:51.839Z,95471.80
2019-04-03T10:25:20.956Z,95472.03
2019-04-03T10:27:50.061Z,95477.69
2019-04-03T10:30:22.369Z,95460.94
2019-04-03T10:32:51.516Z,95446.22
2019-04-03T10:35:20.605Z,95427.91
2019-04-03T10:37:49.787Z,95434.52
2019-04-03T10:40:20.014Z,95438.44
2019-04-03T10:42:49.327Z,95423.08
2019-04-03T10:45:19.104Z,95415.91
2019-04-03T10:47:48.157Z,95401.75
2019-04-03T10:50:17.468Z,95395.80
2019-04-03T10:52:49.112Z,95398.34
2019-04-03T10:55:17.393Z,95395.06
2019-04-03T10:57:46.504Z,95407.42
2019-04-03T11:00:16.648Z,95395.00
2019-04-03T11:02:45.765Z,95400.45
2019-04-03T11:05:15.673Z,95406.76
2019-04-03T11:07:44.905Z,95413.92
2019-04-03T11:10:14.284Z,95405.57
2019-04-03T11:12:43.406Z,95387.09
2019-04-03T11:15:12.903Z,95386.57
2019-04-03T11:17:42.124Z,95378.98
2019-04-03T11:20:11.885Z,95376.00
2019-04-03T11:22:42.705Z,95380.92
2019-04-03T11:27:44.544Z,95388.94
2019-04-03T11:30:19.161Z,95385.70
2019-04-03T11:30:54.598Z,95390.52
2019-04-03T11:32:47.320Z,95379.16
2019-04-03T11:35:16.920Z,95363.16
2019-04-03T11:37:46.011Z,95354.25
2019-04-03T11:40:18.138Z,95351.02
2019-04-03T11:42:47.372Z,95349.96
2019-04-03T11:45:18.279Z,95367.63
2019-04-03T11:47:47.407Z,95376.44
2019-04-03T11:50:17.773Z,95377.38
2019-04-03T11:52:47.206Z,95366.72
2019-04-03T11:55:16.639Z,95364.61
2019-04-03T11:57:47.537Z,95366.42
2019-04-03T12:00:19.920Z,95369.00
2019-04-03T12:02:48.996Z,95367.55
2019-04-03T12:05:20.704Z,95361.67
2019-04-03T12:07:49.243Z,95358.77
2019-04-03T12:10:18.361Z,95365.16
2019-04-03T12:12:47.446Z,95376.85
2019-04-03T12:15:20.007Z,95371.45
2019-04-03T12:17:47.544Z,95382.75
2019-04-03T12:20:17.644Z,95378.30
2019-04-03T12:22:46.732Z,95375.20
2019-04-03T12:25:16.139Z,95351.47
2019-04-03T12:27:46.455Z,95349.42
2019-04-03T12:30:16.176Z,95367.27
2019-04-03T12:32:48.647Z,95384.24
2019-04-03T12:35:16.498Z,95385.46
2019-04-03T12:37:46.086Z,95377.83
2019-04-03T12:40:15.382Z,95388.64
2019-04-03T12:42:44.534Z,95385.08
2019-04-03T12:45:14.374Z,95375.55
2019-04-03T12:47:45.258Z,95370.33
2019-04-03T12:50:15.348Z,95362.91
2019-04-03T12:52:45.462Z,95363.16
2019-04-03T12:55:15.617Z,95355.31
2019-04-03T12:57:45.139Z,95343.00
2019-04-03T13:00:15.076Z,95334.55
2019-04-03T13:02:44.188Z,95330.30
2019-04-03T13:05:15.295Z,95333.81
2019-04-03T13:07:46.866Z,95332.39
2019-04-03T13:10:16.520Z,95324.38
2019-04-03T13:12:46.165Z,95317.91
2019-04-03T13:15:15.440Z,95315.77
2019-04-03T13:17:45.018Z,95297.28
2019-04-03T13:20:15.682Z,95287.84
2019-04-03T13:22:45.014Z,95277.20
2019-04-03T13:25:14.553Z,95272.94
2019-04-03T13:27:44.084Z,95268.23
2019-04-03T13:30:14.803Z,95270.27
2019-04-03T13:32:52.010Z,95281.31
2019-04-03T13:35:16.365Z,95285.82
2019-04-03T13:37:46.600Z,95290.43
2019-04-03T13:40:16.717Z,95293.75
2019-04-03T13:42:47.646Z,95293.05
2019-04-03T13:45:16.600Z,95293.16
2019-04-03T13:47:47.060Z,95299.25
2019-04-03T13:50:16.371Z,95279.74
2019-04-03T13:52:48.478Z,95291.15
2019-04-03T13:55:16.517Z,95285.78
2019-04-03T13:57:46.999Z,95279.97
2019-04-03T14:00:21.136Z,95280.50
2019-04-03T14:02:47.519Z,95280.72
2019-04-03T14:05:16.716Z,95300.43
2019-04-03T14:07:46.142Z,95287.48
2019-04-03T14:10:15.561Z,95291.03
2019-04-03T14:12:45.780Z,95283.33
2019-04-03T14:15:14.940Z,95285.33
2019-04-03T14:17:54.108Z,95274.66
2019-04-03T14:20:15.461Z,95266.59
2019-04-03T14:22:44.558Z,95268.55
2019-04-03T14:25:20.520Z,95276.64
2019-04-03T14:27:44.561Z,95277.30
2019-04-03T14:30:13.841Z,95270.28
2019-04-03T14:32:44.991Z,95270.75
2019-04-03T14:35:44.320Z,95266.55
2019-04-03T14:37:44.789Z,95271.88
2019-04-03T14:40:13.879Z,95263.11
2019-04-03T14:42:43.172Z,95266.83
2019-04-03T14:45:14.689Z,95279.27
2019-04-03T14:47:43.391Z,95276.72
2019-04-03T14:50:12.470Z,95272.08
2019-04-03T14:52:41.966Z,95273.47
2019-04-03T14:55:21.354Z,95279.45
2019-04-03T14:57:42.363Z,95276.06
2019-04-03T15:00:25.200Z,95276.39
2019-04-03T15:02:44.314Z,95282.57
2019-04-03T15:05:13.877Z,95281.91
2019-04-03T15:07:43.432Z,95281.41
2019-04-03T15:10:12.841Z,95279.64
2019-04-03T15:12:42.312Z,95277.84
2019-04-03T15:15:11.629Z,95278.84
2019-04-03T15:17:41.505Z,95290.16
2019-04-03T15:20:11.304Z,95278.22
2019-04-03T15:22:40.392Z,95277.77
2019-04-03T15:25:09.894Z,95287.69
2019-04-03T15:27:39.213Z,95282.04
2019-04-03T15:30:11.529Z,95276.25
2019-04-03T15:32:40.574Z,95282.42
2019-04-03T15:35:10.256Z,95284.41
2019-04-03T15:37:41.446Z,95290.25
2019-04-03T15:40:10.281Z,95280.41
2019-04-03T15:42:41.297Z,95276.44
2019-04-03T15:45:10.522Z,95275.08
2019-04-03T15:47:44.966Z,95277.69
2019-04-03T15:50:10.692Z,95266.54
2019-04-03T15:52:39.699Z,95258.67
2019-04-03T15:55:09.599Z,95255.13
2019-04-03T15:57:39.966Z,95247.16
2019-04-03T16:00:11.087Z,95249.47
2019-04-03T16:02:40.395Z,95263.37
2019-04-03T16:05:09.763Z,95267.48
2019-04-03T16:07:41.493Z,95261.13
2019-04-03T16:10:10.589Z,95248.28
2019-04-03T16:12:42.982Z,95243.10
2019-04-03T16:15:10.704Z,95240.64
2019-04-03T16:17:39.951Z,95247.83
2019-04-03T16:20:09.347Z,95236.65
2019-04-03T16:22:38.446Z,95239.42
2019-04-03T16:25:08.306Z,95234.33
2019-04-03T16:27:37.975Z,95237.31
2019-04-03T16:30:07.682Z,95245.06
2019-04-03T16:32:36.771Z,95258.34
2019-04-03T16:35:06.548Z,95267.98
2019-04-03T16:37:36.557Z,95266.66
2019-04-03T16:40:06.726Z,95275.43
2019-04-03T16:42:35.869Z,95267.73
2019-04-03T16:45:08.253Z,95265.88
2019-04-03T16:47:36.829Z,95264.53
2019-04-03T17:13:26.175Z,95287.97
2019-04-03T17:15:55.379Z,95303.93
2019-04-03T17:18:24.544Z,95292.74
2019-04-03T17:20:56.185Z,95289.54
2019-04-03T17:23:24.699Z,95278.89
2019-04-03T17:25:53.833Z,95268.78
2019-04-03T17:28:23.217Z,95255.22
2019-04-03T17:30:52.629Z,95244.05
2019-04-03T17:33:22.183Z,95247.78
2019-04-03T17:35:52.105Z,95258.67
2019-04-03T17:38:21.556Z,95269.06
2019-04-03T17:40:50.815Z,95284.97
2019-04-03T17:43:19.978Z,95280.74
2019-04-03T17:45:49.155Z,95286.56
2019-04-03T17:48:18.289Z,95277.53
2019-04-03T17:50:47.529Z,95275.64
2019-04-03T17:53:16.674Z,95276.46
2019-04-03T17:55:45.869Z,95290.80
2019-04-03T17:58:16.856Z,95289.19
2019-04-03T18:00:45.859Z,95290.80
2019-04-03T18:03:15.192Z,95277.48
2019-04-03T18:05:44.432Z,95282.83
2019-04-03T18:08:13.623Z,95287.35
2019-04-03T18:10:43.185Z,95281.24
2019-04-03T18:13:12.488Z,95277.51
2019-04-03T18:15:41.663Z,95278.81
2019-04-03T18:18:10.931Z,95277.73
2019-04-03T18:20:40.080Z,95304.06
2019-04-03T18:23:10.747Z,95297.67
2019-04-03T18:25:40.036Z,95297.17
2019-04-03T18:28:09.221Z,95289.97
2019-04-03T18:30:38.686Z,95296.91
2019-04-03T18:33:07.830Z,95313.67
2019-04-03T18:35:36.960Z,95321.84
2019-04-03T18:38:08.025Z,95314.95
2019-04-03T18:40:37.114Z,95308.56
2019-04-03T18:43:06.272Z,95310.44
2019-04-03T18:45:35.409Z,95304.09
2019-04-03T18:48:28.466Z,95307.80
2019-04-03T18:50:56.766Z,95316.62
2019-04-03T18:53:26.344Z,95315.07
2019-04-03T18:55:57.640Z,95315.91
2019-04-03T18:58:31.831Z,95313.45
2019-04-03T19:01:13.583Z,95304.37
2019-04-03T19:03:45.483Z,95313.96
2019-04-03T19:06:18.948Z,95320.05
2019-04-03T19:08:52.036Z,95324.83
2019-04-03T19:11:23.154Z,95328.30
2019-04-03T19:13:54.809Z,95339.97
2019-04-03T19:16:29.788Z,95346.06
2019-04-03T19:19:07.384Z,95349.73
2019-04-03T19:21:28.974Z,95346.28
2019-04-03T19:23:58.274Z,95342.84
2019-04-03T19:26:27.608Z,95331.39
2019-04-03T19:28:57.068Z,95330.13
2019-04-03T19:31:26.429Z,95335.67
2019-04-03T19:33:55.893Z,95335.92
2019-04-03T19:36:29.664Z,95326.34
2019-04-03T19:38:58.421Z,95317.86
2019-04-03T19:41:27.559Z,95313.34
2019-04-03T19:43:57.098Z,95314.47
2019-04-03T19:46:26.624Z,95294.73
2019-04-03T19:48:56.783Z,95303.02
2019-04-03T19:51:27.020Z,95304.06
2019-04-03T19:53:59.643Z,95319.45
2019-04-03T19:56:27.622Z,95321.34
2019-04-03T19:58:59.337Z,95320.00
2019-04-03T20:01:28.443Z,95320.75
2019-04-03T20:03:58.350Z,95309.56
2019-04-03T20:06:27.616Z,95315.70
2019-04-03T20:09:00.873Z,95296.25
2019-04-03T20:11:30.344Z,95294.41
2019-04-03T20:14:00.058Z,95306.62
2019-04-03T20:16:29.553Z,95296.77
2019-04-03T20:18:59.140Z,95300.16
2019-04-03T20:21:28.297Z,95300.97
2019-04-03T20:23:58.858Z,95288.19
2019-04-03T20:26:28.817Z,95285.28
2019-04-03T20:28:58.743Z,95288.45
2019-04-03T20:31:28.219Z,95290.13
2019-04-03T20:33:57.898Z,95282.39
2019-04-03T20:36:27.515Z,95289.84
2019-04-03T20:38:58.321Z,95287.20
2019-04-03T20:41:28.516Z,95276.80
2019-04-03T20:43:57.842Z,95285.25
2019-04-03T20:46:27.145Z,95277.56
2019-04-03T20:48:58.458Z,95270.44
2019-04-03T20:51:27.310Z,95252.63
2019-04-03T20:53:56.465Z,95255.61
2019-04-03T20:56:30.543Z,95285.00
2019-04-03T20:59:03.093Z,95293.72
2019-04-03T21:01:35.292Z,95275.41
2019-04-03T21:04:04.717Z,95261.05
2019-04-03T21:06:33.877Z,95257.94
2019-04-03T21:09:04.864Z,95275.22
2019-04-03T21:11:34.535Z,95267.80
2019-04-03T21:16:37.200Z,95251.52
2019-04-03T21:19:06.817Z,95258.16
2019-04-03T21:20:35.103Z,95262.70
2019-04-03T21:21:36.397Z,95270.63
2019-04-03T21:24:07.995Z,95269.30
2019-04-03T21:26:38.313Z,95278.29
2019-04-03T21:29:07.910Z,95296.93
2019-04-03T21:31:37.293Z,95300.94
2019-04-03T21:34:06.606Z,95297.20
2019-04-03T21:36:38.426Z,95277.30
2019-04-03T21:39:08.102Z,95281.63
2019-04-03T21:41:37.627Z,95282.92
2019-04-03T21:44:07.090Z,95281.29
2019-04-03T21:46:39.577Z,95286.65
2019-04-03T21:49:07.474Z,95283.67
2019-04-03T21:51:36.928Z,95278.13
2019-04-03T21:54:06.350Z,95276.05
2019-04-03T21:56:35.978Z,95288.00
2019-04-03T21:59:05.223Z,95293.03
2019-04-03T22:01:34.779Z,95291.20
2019-04-03T22:04:04.682Z,95295.71
2019-04-03T22:06:34.182Z,95301.05
2019-04-03T22:09:05.302Z,95301.58
2019-04-03T22:11:35.558Z,95300.73
2019-04-03T22:14:05.503Z,95299.48
2019-04-03T22:16:34.939Z,95304.48
2019-04-03T22:19:04.512Z,95296.27
2019-04-03T22:21:33.944Z,95292.84
2019-04-03T22:24:06.578Z,95294.12
2019-04-03T22:26:34.507Z,95287.54
2019-04-03T22:29:03.835Z,95287.28
2019-04-03T22:31:33.315Z,95278.80
2019-04-03T22:34:02.651Z,95269.78
2019-04-03T22:36:33.730Z,95268.94
2019-04-03T22:39:03.153Z,95266.57
2019-04-03T22:41:32.475Z,95264.67
2019-04-03T22:44:01.792Z,95268.41
2019-04-03T22:46:31.129Z,95261.74
2019-04-03T22:49:00.674Z,95264.67
2019-04-03T22:51:30.195Z,95263.28
2019-04-03T22:53:59.700Z,95264.34
2019-04-03T22:56:29.007Z,95264.33
2019-04-03T22:58:58.317Z,95268.80
2019-04-03T23:01:27.955Z,95260.84
2019-04-03T23:03:58.850Z,95265.66
2019-04-03T23:06:28.196Z,95265.88
2019-04-03T23:08:57.620Z,95265.11
2019-04-03T23:11:26.937Z,95252.58
2019-04-03T23:13:56.312Z,95248.59
2019-04-03T23:16:25.699Z,95242.48
2019-04-03T23:18:55.090Z,95237.41
2019-04-03T23:21:24.389Z,95218.31
2019-04-03T23:23:53.926Z,95206.13
2019-04-03T23:26:23.315Z,95208.73
2019-04-03T23:28:52.671Z,95204.00
2019-04-03T23:31:22.183Z,95214.61
2019-04-03T23:33:51.589Z,95204.51
2019-04-03T23:36:21.098Z,95194.64
2019-04-03T23:38:51.980Z,95203.92
2019-04-03T23:41:21.364Z,95208.16
2019-04-03T23:43:50.820Z,95202.81
2019-04-03T23:46:20.285Z,95195.38
2019-04-03T23:48:49.635Z,95187.94
2019-04-03T23:51:23.278Z,95176.77
2019-04-03T23:53:50.107Z,95182.64
2019-04-03T23:56:19.443Z,95186.86
2019-04-03T23:58:48.798Z,95195.08
